^^
Datos históricos de la estación: Murcia-Puente Tocinos
Diario Informe para Enero 22, 2022 Unidades:  Métrico    Ingés   Ambas
Diario Semanal Mensual Anual
  Máxima: Mínima: Promedio:
Temperatura: 10.2 °C 7.7 °C 9.1 °C
Punto de rocio: 9.3 °C 6.2 °C 7.9 °C
Humedad: 96% 84% 92%
Velocidad viento: 11.1km/h 0km/h 3.9km/h
Racha viento: 22.2km/h - -
Viento- - SSE
Presión: 1030.1 hPa 1027.0 hPa -
Precipitación: 7.7 mm    
 
 
Tabla de datos para Enero 22, 2022
Hora Temperatura Punto de rocio Presión Viento Velocidad viento Racha viento Humedad Intensidad lluvia(por hora) Nubes
00:04 9.3 °C 6.7 °C 1027.0 hPa SE 3.9 km/h 7.4 km/h 84% 0.0 mm
00:09 9.2 °C 6.6 °C 1027.1 hPa SSE 4 km/h 7.6 km/h 84% 0.0 mm
00:14 9.2 °C 6.6 °C 1027.1 hPa SSE 4.7 km/h 9.3 km/h 84% 0.0 mm
00:19 9.1 °C 6.5 °C 1027.1 hPa SSE 4.8 km/h 8.4 km/h 84% 0.0 mm
00:24 8.9 °C 6.4 °C 1027.1 hPa SSE 5.8 km/h 7.4 km/h 84% 0.0 mm
00:29 8.9 °C 6.3 °C 1027.1 hPa SSE 5.7 km/h 7.6 km/h 84% 0.0 mm
00:34 8.8 °C 6.3 °C 1027.1 hPa SSE 5 km/h 7.4 km/h 84% 0.0 mm
00:39 8.8 °C 6.2 °C 1027.2 hPa Sur 4.8 km/h 7.4 km/h 84% 0.0 mm
00:44 8.8 °C 6.2 °C 1027.2 hPa SSE 3.9 km/h 7.6 km/h 84% 0.0 mm
00:49 8.8 °C 6.2 °C 1027.2 hPa SSE 4 km/h 8.7 km/h 84% 0.0 mm
00:54 8.7 °C 6.2 °C 1027.4 hPa SSE 4.7 km/h 9.3 km/h 84% 0.0 mm
00:59 8.7 °C 6.2 °C 1027.4 hPa Sur 4.7 km/h 7.4 km/h 84% 0.0 mm
01:04 8.7 °C 6.2 °C 1027.4 hPa SSE 5 km/h 9.3 km/h 84% 0.0 mm
01:09 8.7 °C 6.2 °C 1027.4 hPa Sur 5.2 km/h 11.1 km/h 84% 0.0 mm
01:14 8.7 °C 6.2 °C 1027.4 hPa Sur 6.4 km/h 11.1 km/h 84% 0.0 mm
01:19 8.7 °C 6.2 °C 1027.4 hPa Sur 6.5 km/h 11.1 km/h 84.3% 0.0 mm
01:24 8.8 °C 6.4 °C 1027.5 hPa Sur 6.9 km/h 9.3 km/h 85% 0.0 mm
01:29 8.8 °C 6.4 °C 1027.5 hPa Sur 6.6 km/h 7.4 km/h 85% 0.0 mm
01:34 8.9 °C 6.5 °C 1027.5 hPa SSO 4.7 km/h 7.4 km/h 85% 0.3 mm
01:39 8.9 °C 6.6 °C 1027.5 hPa SSO 4.5 km/h 6.4 km/h 85.6% 0.8 mm
01:44 9 °C 6.8 °C 1027.4 hPa Sur 3.9 km/h 7.4 km/h 86% 1.0 mm
01:49 8.9 °C 6.8 °C 1027.4 hPa SSO 3.9 km/h 7.4 km/h 86.6% 1.0 mm
01:54 8.9 °C 6.9 °C 1027.4 hPa SSO 3.9 km/h 5.6 km/h 87% 1.0 mm
01:59 8.9 °C 6.9 °C 1027.4 hPa SSO 3.7 km/h 5.6 km/h 87.5% 1.0 mm
02:04 8.9 °C 7 °C 1027.4 hPa SSO 3.2 km/h 5.6 km/h 88% 1.0 mm
02:09 8.9 °C 7 °C 1027.5 hPa SSO 3.2 km/h 4.7 km/h 88.2% 1.3 mm
02:14 8.9 °C 7.2 °C 1027.5 hPa SO 2.9 km/h 5.6 km/h 89% 1.3 mm
02:19 8.9 °C 7.2 °C 1027.5 hPa ONO 2.9 km/h 5.6 km/h 89% 1.3 mm
02:24 8.8 °C 7.1 °C 1027.5 hPa NO 3.2 km/h 5.8 km/h 89% 1.3 mm
02:29 8.7 °C 7 °C 1027.4 hPa NO 3.3 km/h 5.6 km/h 89% 1.3 mm
02:34 8.7 °C 7 °C 1027.4 hPa NO 3.9 km/h 7.6 km/h 89% 1.3 mm
02:39 8.5 °C 6.9 °C 1027.4 hPa NNO 4 km/h 8.4 km/h 89.3% 1.0 mm
02:44 8.4 °C 6.8 °C 1027.3 hPa NO 4.7 km/h 7.6 km/h 90% 0.5 mm
02:49 8.3 °C 6.8 °C 1027.3 hPa NO 4.4 km/h 7.4 km/h 90% 0.5 mm
02:54 8.3 °C 6.8 °C 1027.3 hPa NO 3.2 km/h 5.6 km/h 90.7% 0.5 mm
02:59 8.3 °C 6.9 °C 1027.3 hPa NO 3.2 km/h 5.8 km/h 91% 0.5 mm
03:04 8.3 °C 6.9 °C 1027.3 hPa NO 2.9 km/h 4.7 km/h 91% 0.5 mm
03:09 8.3 °C 7 °C 1027.3 hPa NO 2.8 km/h   91.6% 0.5 mm
03:14 8.3 °C 7.1 °C 1027.3 hPa NO 2.3 km/h   92% 0.2 mm
03:19 8.3 °C 7.1 °C 1027.3 hPa NO 2.3 km/h 5.8 km/h 92% 0.2 mm
03:24 8.4 °C 7.1 °C 1027.3 hPa NO 2.3 km/h 4.7 km/h 92% 0.2 mm
03:29 8.4 °C 7.1 °C 1027.3 hPa NO 2.4 km/h 4.7 km/h 92% 0.2 mm
03:34 8.3 °C 7.1 °C 1027.3 hPa NO 2.9 km/h 5.6 km/h 92% 0.2 mm
03:39 8.4 °C 7.2 °C 1027.3 hPa NO 2.9 km/h 5.6 km/h 92% 0.2 mm
03:44 8.4 °C 7.2 °C 1027.3 hPa NO 3.2 km/h 4.7 km/h 92% 0.2 mm
03:49 8.4 °C 7.2 °C 1027.3 hPa NO 3.2 km/h 4.7 km/h 92.1% 0.2 mm
03:54 8.4 °C 7.3 °C 1027.3 hPa NO 2.9 km/h 4.7 km/h 92.8% 0.0 mm
03:59 8.4 °C 7.3 °C 1027.3 hPa NO 2.9 km/h 4.7 km/h 93% 0.0 mm
04:04 8.4 °C 7.3 °C 1027.3 hPa NO 2.9 km/h 4.7 km/h 92.6% 0.0 mm
04:09 8.4 °C 7.2 °C 1027.3 hPa NO 2.9 km/h 5 km/h 92.3% 0.0 mm
04:14 8.4 °C 7.3 °C 1027.3 hPa NO 2.9 km/h 5.8 km/h 93% 0.0 mm
04:19 8.3 °C 7.3 °C 1027.3 hPa NO 2.9 km/h 4.7 km/h 93% 0.0 mm
04:24 8.3 °C 7.2 °C 1027.3 hPa NO 3.2 km/h 4.7 km/h 93% 0.0 mm
04:29 8.3 °C 7.2 °C 1027.3 hPa NO 3.1 km/h 5 km/h 93% 0.0 mm
04:34 8.2 °C 7.1 °C 1027.3 hPa NO 2.3 km/h 5.6 km/h 93% 0.0 mm
04:39 8.2 °C 7.1 °C 1027.3 hPa NO 2.3 km/h 3.9 km/h 93% 0.0 mm
04:44 8.2 °C 7.1 °C 1027.3 hPa NO 2.9 km/h 5.8 km/h 93% 0.0 mm
04:49 8.2 °C 7.1 °C 1027.3 hPa NO 2.9 km/h 5.8 km/h 93% 0.0 mm
04:54 8.1 °C 7.1 °C 1027.3 hPa SSO 2.9 km/h 5.6 km/h 93% 0.0 mm
04:59 8 °C 7 °C 1027.3 hPa Sur 3 km/h 7.4 km/h 93% 0.0 mm
05:04 7.9 °C 6.9 °C 1027.3 hPa Sur 3.2 km/h 3.7 km/h 93% 0.0 mm
05:09 7.9 °C 6.8 °C 1027.3 hPa Sur 3.2 km/h 7.4 km/h 93% 0.0 mm
05:14 7.9 °C 6.8 °C 1027.3 hPa Sur 2.9 km/h 7.4 km/h 93% 0.0 mm
05:19 7.8 °C 6.8 °C 1027.3 hPa Sur 3.2 km/h 9.3 km/h 93% 0.0 mm
05:24 7.8 °C 6.7 °C 1027.3 hPa SSO 5 km/h 8.4 km/h 93% 0.0 mm
05:29 7.8 °C 6.8 °C 1027.3 hPa Sur 5.1 km/h 7.6 km/h 93.8% 0.0 mm
05:34 7.8 °C 6.9 °C 1027.3 hPa SSO 5.8 km/h 8.4 km/h 94% 0.0 mm
05:39 7.8 °C 6.9 °C 1027.4 hPa Sur 5.8 km/h 8.4 km/h 94% 0.0 mm
05:44 7.8 °C 6.8 °C 1027.4 hPa SSE 5.8 km/h 9.5 km/h 94% 0.0 mm
05:49 7.7 °C 6.8 °C 1027.4 hPa SSE 5.9 km/h 9.5 km/h 94% 0.0 mm
05:54 7.7 °C 6.8 °C 1027.5 hPa Sur 6.4 km/h 9.3 km/h 94% 0.0 mm
05:59 7.7 °C 6.8 °C 1027.5 hPa SSE 6.3 km/h 9.3 km/h 94% 0.0 mm
06:04 7.7 °C 6.8 °C 1027.5 hPa SSE 5.8 km/h 9.5 km/h 94% 0.0 mm
06:09 7.7 °C 6.8 °C 1027.5 hPa Sur 5.8 km/h 8.4 km/h 94% 0.0 mm
06:14 7.7 °C 6.8 °C 1027.5 hPa Sur 5.8 km/h 9.3 km/h 94% 0.0 mm
06:19 7.7 °C 6.8 °C 1027.5 hPa Sur 5.6 km/h 7.4 km/h 94% 0.0 mm
06:24 7.7 °C 6.8 °C 1027.6 hPa SSE 4.7 km/h 7.4 km/h 94% 0.0 mm
06:29 7.8 °C 6.9 °C 1027.6 hPa SSE 4.6 km/h 5.8 km/h 94% 0.0 mm
06:34 7.8 °C 6.9 °C 1027.6 hPa SSE 3.9 km/h 8.4 km/h 94% 0.0 mm
06:39 7.8 °C 6.9 °C 1027.7 hPa SSE 4 km/h 9.5 km/h 94% 0.0 mm
06:44 7.8 °C 6.8 °C 1027.7 hPa Sur 5 km/h 9.3 km/h 93.4% 0.0 mm
06:49 7.9 °C 6.8 °C 1027.7 hPa SSE 5.1 km/h 9.5 km/h 93% 0.0 mm
06:54 7.9 °C 6.8 °C 1027.8 hPa Sur 5.8 km/h 7.4 km/h 93% 0.0 mm
06:59 7.9 °C 6.8 °C 1027.8 hPa Sur 5.6 km/h 7.4 km/h 93% 0.0 mm
07:04 7.9 °C 6.8 °C 1027.8 hPa Sur 4.7 km/h 7.6 km/h 93% 0.0 mm
07:09 7.9 °C 6.9 °C 1027.9 hPa Sur 4.7 km/h 7.4 km/h 93% 0.0 mm
07:14 8 °C 6.9 °C 1027.9 hPa Sur 4.7 km/h 5.6 km/h 93% 0.0 mm
07:19 8 °C 6.9 °C 1027.9 hPa Sur 4.4 km/h 3.7 km/h 93% 0.0 mm
07:24 8.1 °C 7 °C 1028.1 hPa Sur 2.9 km/h 4.7 km/h 93% 0.0 mm
07:29 8.1 °C 7 °C 1028.1 hPa Sur 2.5 km/h   92.7% 0.0 mm
07:34 8.1 °C 7 °C 1028.1 hPa Calm   2.3 km/h 92.9% 0.0 mm
07:39 8.1 °C 7.1 °C 1028.3 hPa Calm   1.9 km/h 93% 0.0 mm
07:44 8.2 °C 7 °C 1028.3 hPa Calm   4.7 km/h 92.1% 0.0 mm
07:49 8.2 °C 7 °C 1028.3 hPa Calm   3.9 km/h 92% 0.0 mm
07:54 8.2 °C 7 °C 1028.4 hPa Calm   4.7 km/h 92% 0.0 mm
07:59 8.1 °C 6.9 °C 1028.4 hPa Calm   1.9 km/h 92% 0.0 mm
08:04 8.1 °C 6.9 °C 1028.4 hPa Calm     92% 0.0 mm
08:09 8.1 °C 6.8 °C 1028.6 hPa Calm   3.9 km/h 92% 0.0 mm
08:14 8 °C 6.8 °C 1028.6 hPa Calm   4.7 km/h 92% 0.0 mm
08:19 7.9 °C 6.7 °C 1028.6 hPa Sur 0.3 km/h 4.7 km/h 92% 0.0 mm
08:24 7.9 °C 6.7 °C 1028.8 hPa Sur 2.3 km/h 3.9 km/h 92% 0.0 mm
08:29 7.9 °C 6.7 °C 1028.8 hPa Sur 1.9 km/h 3.9 km/h 92% 0.0 mm
08:34 7.9 °C 6.7 °C 1028.8 hPa Calm   5.6 km/h 92.4% 0.0 mm
08:39 7.9 °C 6.8 °C 1028.8 hPa Sur 0.3 km/h 3.9 km/h 93% 0.0 mm
08:44 7.9 °C 6.8 °C 1028.8 hPa Sur 2.3 km/h 4.7 km/h 93% 0.0 mm
08:49 7.9 °C 6.8 °C 1028.8 hPa Sur 2.3 km/h 3.9 km/h 93% 0.0 mm
08:54 7.9 °C 6.8 °C 1028.9 hPa Sur 2.3 km/h 5.8 km/h 93% 0.0 mm
08:59 7.9 °C 6.8 °C 1028.9 hPa Sur 2.3 km/h 4.7 km/h 93% 0.0 mm
09:04 7.9 °C 6.8 °C 1028.9 hPa Sur 2.3 km/h 3.9 km/h 93% 0.0 mm
09:09 7.9 °C 6.9 °C 1029.1 hPa Sur 1.9 km/h   93% 0.3 mm
09:14 8 °C 7 °C 1029.1 hPa Calm   4.7 km/h 93% 0.3 mm
09:19 8.1 °C 7.1 °C 1029.1 hPa Sur 0.4 km/h 5.8 km/h 93% 0.3 mm
09:24 8.1 °C 7.1 °C 1029.2 hPa Sur 2.9 km/h 5.6 km/h 93% 0.3 mm
09:29 8.1 °C 7.1 °C 1029.2 hPa SO 2.8 km/h 3.9 km/h 93% 0.3 mm
09:34 8.2 °C 7.1 °C 1029.2 hPa NO 2.3 km/h 4.7 km/h 93% 0.3 mm
09:39 8.2 °C 7.1 °C 1029.3 hPa North 2.3 km/h 5 km/h 93% 0.3 mm
09:44 8.3 °C 7.2 °C 1029.3 hPa NNE 2.3 km/h 5.6 km/h 93% 0.3 mm
09:49 8.3 °C 7.2 °C 1029.3 hPa NE 2.3 km/h 3.9 km/h 93% 0.3 mm
09:54 8.4 °C 7.4 °C 1029.4 hPa NE 2.3 km/h 3.7 km/h 93.5% 0.3 mm
09:59 8.4 °C 7.4 °C 1029.4 hPa NE 2.3 km/h 5.8 km/h 93.6% 0.3 mm
10:04 8.4 °C 7.3 °C 1029.4 hPa NE 2.3 km/h 5.6 km/h 93% 0.3 mm
10:09 8.5 °C 7.5 °C 1029.5 hPa NE 2.3 km/h 4.7 km/h 93.5% 0.3 mm
10:14 8.6 °C 7.7 °C 1029.5 hPa NE 2.9 km/h 3.9 km/h 94% 0.0 mm
10:19 8.7 °C 7.7 °C 1029.5 hPa NE 2.9 km/h 7.4 km/h 94% 0.0 mm
10:24 8.7 °C 7.7 °C 1029.5 hPa NE 3.2 km/h 5.8 km/h 93.7% 0.0 mm
10:29 8.7 °C 7.8 °C 1029.5 hPa NE 3.2 km/h 5.6 km/h 93.9% 0.0 mm
10:34 8.8 °C 7.8 °C 1029.5 hPa NE 3.2 km/h 5.6 km/h 93.6% 0.0 mm
10:39 8.8 °C 7.7 °C 1029.7 hPa NE 3.2 km/h 5.6 km/h 93% 0.0 mm
10:44 8.8 °C 7.7 °C 1029.7 hPa NE 2.9 km/h 5.8 km/h 93% 0.0 mm
10:49 8.8 °C 7.7 °C 1029.7 hPa NE 2.9 km/h 5.8 km/h 93% 0.0 mm
10:54 8.8 °C 7.7 °C 1029.9 hPa NE 3.2 km/h 3.9 km/h 93% 0.0 mm
10:59 8.8 °C 7.7 °C 1029.9 hPa NNO 3.2 km/h 5.8 km/h 93% 0.0 mm
11:04 8.8 °C 7.6 °C 1029.9 hPa ONO 2.9 km/h 7.4 km/h 92.5% 0.0 mm
11:09 8.8 °C 7.6 °C 1030.0 hPa NO 2.9 km/h 5.6 km/h 92.3% 0.5 mm
11:14 8.8 °C 7.6 °C 1030.0 hPa NO 3.2 km/h 7.4 km/h 92% 0.5 mm
11:19 8.8 °C 7.6 °C 1030.0 hPa ONO 3.3 km/h 7.4 km/h 92% 0.5 mm
11:24 8.8 °C 7.6 °C 1030.0 hPa Oeste 3.9 km/h 4.7 km/h 92% 0.5 mm
11:29 8.9 °C 7.7 °C 1030.0 hPa Oeste 3.6 km/h 5.6 km/h 92% 0.5 mm
11:34 8.9 °C 7.7 °C 1030.0 hPa Oeste 2.3 km/h 4.7 km/h 92% 0.5 mm
11:39 8.9 °C 7.7 °C 1030.0 hPa Oeste 2.3 km/h 4.7 km/h 92% 0.5 mm
11:44 9 °C 7.7 °C 1030.0 hPa Oeste 2.3 km/h 5.8 km/h 92% 0.5 mm
11:49 9.1 °C 7.9 °C 1030.0 hPa OSO 2.3 km/h 5.6 km/h 92% 0.5 mm
11:54 9.2 °C 7.9 °C 1030.1 hPa SSO 2.3 km/h 5.8 km/h 92% 0.5 mm
11:59 9.2 °C 7.9 °C 1030.1 hPa SO 2.6 km/h 7.4 km/h 91.4% 0.5 mm
12:04 9.2 °C 7.8 °C 1030.1 hPa SO 3.9 km/h 7.4 km/h 91% 0.5 mm
12:09 9.4 °C 8.1 °C 1030.1 hPa Sur 4 km/h 9.3 km/h 91.6% 0.0 mm
12:14 9.6 °C 8.2 °C 1030.0 hPa SSO 4.7 km/h 9.5 km/h 91% 0.0 mm
12:19 9.7 °C 8.3 °C 1030.0 hPa SSO 4.7 km/h 10 km/h 91% 0.0 mm
12:24 9.7 °C 8.3 °C 1030.0 hPa SSO 5 km/h 11.9 km/h 91% 0.0 mm
12:29 9.7 °C 8.1 °C 1029.9 hPa SSO 5.4 km/h 11.1 km/h 90.1% 0.0 mm
12:34 9.7 °C 8.2 °C 1029.9 hPa SO 7.6 km/h 8.4 km/h 90.5% 0.0 mm
12:39 9.7 °C 8.1 °C 1029.9 hPa SSO 7.3 km/h 11.1 km/h 90% 0.0 mm
12:44 9.7 °C 8.1 °C 1029.7 hPa SSO 5.8 km/h 11.9 km/h 90% 0.0 mm
12:49 9.8 °C 8.1 °C 1029.7 hPa SSO 6.1 km/h 9.5 km/h 89.6% 0.0 mm
12:54 9.8 °C 8.2 °C 1029.7 hPa SSO 7.6 km/h 9.5 km/h 89.6% 0.0 mm
12:59 9.9 °C 8.2 °C 1029.5 hPa SSO 7.3 km/h 11.1 km/h 89% 0.0 mm
13:04 9.9 °C 8 °C 1029.5 hPa Sur 6.4 km/h 11.9 km/h 88% 0.0 mm
13:09 9.9 °C 8 °C 1029.5 hPa Sur 6.5 km/h 9.3 km/h 88% 0.0 mm
13:14 9.9 °C 8 °C 1029.3 hPa SE 6.9 km/h 7.6 km/h 88% 0.0 mm
13:19 10 °C 8.1 °C 1029.3 hPa Sur 6.5 km/h 7.6 km/h 88% 0.0 mm
13:24 10 °C 8.2 °C 1029.3 hPa SSO 3.9 km/h 9.3 km/h 88% 0.0 mm
13:29 9.9 °C 8 °C 1029.1 hPa SSO 4 km/h 7.4 km/h 88% 0.0 mm
13:34 9.9 °C 8.2 °C 1029.1 hPa SSE 5 km/h 5.6 km/h 88.9% 0.0 mm
13:39 10 °C 8.3 °C 1029.1 hPa SSE 4.7 km/h 7.4 km/h 89% 0.0 mm
13:44 9.9 °C 8.2 °C 1028.9 hPa SSO 3.2 km/h 7.4 km/h 89% 0.0 mm
13:49 10 °C 8.3 °C 1028.9 hPa SSO 3.2 km/h 5.8 km/h 89% 0.0 mm
13:54 10 °C 8.3 °C 1028.9 hPa SSO 3.2 km/h 5.8 km/h 89.1% 0.0 mm
13:59 10.1 °C 8.6 °C 1028.6 hPa SSO 3.2 km/h 5.8 km/h 90% 0.0 mm
14:04 10.2 °C 8.6 °C 1028.6 hPa Sur 2.9 km/h 7.6 km/h 90% 0.0 mm
14:09 10.1 °C 8.5 °C 1028.6 hPa Sur 3.1 km/h 8.4 km/h 89.5% 0.0 mm
14:14 10.1 °C 8.6 °C 1028.4 hPa SSE 4.7 km/h 7.4 km/h 90% 0.0 mm
14:19 10 °C 8.5 °C 1028.4 hPa SE 4.7 km/h 8.4 km/h 90% 0.0 mm
14:24 9.9 °C 8.3 °C 1028.4 hPa Sur 4.7 km/h 9.5 km/h 89.7% 0.0 mm
14:29 9.8 °C 8.2 °C 1028.3 hPa SE 4.9 km/h 9.5 km/h 90% 0.0 mm
14:34 9.8 °C 8.2 °C 1028.3 hPa SE 6.4 km/h 7.4 km/h 90% 0.0 mm
14:39 9.8 °C 8.4 °C 1028.3 hPa SSE 5.9 km/h 3.9 km/h 90.9% 0.0 mm
14:44 9.9 °C 8.5 °C 1028.1 hPa SSE 2.9 km/h 4.7 km/h 91% 0.0 mm
14:49 9.9 °C 8.5 °C 1028.1 hPa SSE 2.5 km/h 2.3 km/h 91% 0.0 mm
14:54 10 °C 8.6 °C 1028.1 hPa Calm   2.3 km/h 91% 0.0 mm
14:59 10.1 °C 8.7 °C 1028.0 hPa Calm   4.7 km/h 91% 0.0 mm
15:04 10.1 °C 8.7 °C 1028.0 hPa Calm   5.8 km/h 91% 0.0 mm
15:09 10.1 °C 8.7 °C 1028.0 hPa ONO 0.5 km/h 7.6 km/h 91% 0.0 mm
15:14 10 °C 8.6 °C 1027.9 hPa ONO 3.2 km/h 7.6 km/h 91% 0.0 mm
15:19 9.9 °C 8.5 °C 1027.9 hPa NO 3.4 km/h 7.6 km/h 91% 0.0 mm
15:24 9.9 °C 8.5 °C 1027.9 hPa NNO 4.7 km/h 7.6 km/h 91% 0.0 mm
15:29 9.9 °C 8.5 °C 1027.8 hPa NNO 4.5 km/h 7.6 km/h 91% 0.0 mm
15:34 9.9 °C 8.5 °C 1027.8 hPa NNE 3.2 km/h 8.4 km/h 91% 0.0 mm
15:39 10 °C 8.6 °C 1027.8 hPa NNE 3.2 km/h 5.8 km/h 91% 0.0 mm
15:44 10 °C 8.6 °C 1027.8 hPa NNO 3.2 km/h 9.3 km/h 91% 0.0 mm
15:49 10 °C 8.6 °C 1027.8 hPa NNO 3.4 km/h 7.4 km/h 91% 0.0 mm
15:54 10 °C 8.6 °C 1027.8 hPa NNO 4.7 km/h 5.8 km/h 91% 0.0 mm
15:59 10 °C 8.6 °C 1027.8 hPa NNE 4.3 km/h 7.4 km/h 91% 0.0 mm
16:04 10 °C 8.6 °C 1027.8 hPa NNE 2.9 km/h 5.8 km/h 91% 0.0 mm
16:09 9.9 °C 8.6 °C 1027.8 hPa NNE 2.9 km/h 5.6 km/h 91% 0.0 mm
16:14 10 °C 8.6 °C 1027.8 hPa NNE 2.9 km/h 4.7 km/h 91% 0.0 mm
16:19 10 °C 8.6 °C 1027.8 hPa NNE 2.8 km/h 3.9 km/h 91% 0.0 mm
16:24 10 °C 8.6 °C 1027.8 hPa NNE 2.3 km/h 5.6 km/h 91% 0.0 mm
16:29 10 °C 8.6 °C 1027.8 hPa NNE 2.3 km/h 3.9 km/h 91% 0.0 mm
16:34 10.1 °C 8.7 °C 1027.8 hPa NNE 2.3 km/h 1.9 km/h 91% 0.0 mm
16:39 10.1 °C 8.7 °C 1027.8 hPa NNE 1.9 km/h   91% 0.0 mm
16:44 10.1 °C 8.7 °C 1027.8 hPa Calm   2.3 km/h 91% 0.0 mm
16:49 10.1 °C 8.7 °C 1027.8 hPa Calm   5.6 km/h 91% 0.0 mm
16:54 10.1 °C 8.7 °C 1027.8 hPa Calm   4.7 km/h 91% 0.3 mm
16:59 10.1 °C 8.7 °C 1027.8 hPa NNE 0.4 km/h 3.7 km/h 91% 0.3 mm
17:04 10.1 °C 8.7 °C 1027.8 hPa NNE 2.3 km/h 3.9 km/h 91% 0.3 mm
17:09 10.1 °C 8.7 °C 1027.8 hPa NNE 2.3 km/h 3.7 km/h 91% 0.5 mm
17:14 10.1 °C 8.8 °C 1027.7 hPa NNE 2.3 km/h 5 km/h 91.9% 0.5 mm
17:19 10.1 °C 8.8 °C 1027.7 hPa NNE 2.3 km/h 5.6 km/h 92% 0.5 mm
17:24 10 °C 8.8 °C 1027.7 hPa NNE 2.9 km/h 6.4 km/h 92% 0.5 mm
17:29 10 °C 8.8 °C 1027.7 hPa SSO 2.9 km/h 7.4 km/h 92% 0.5 mm
17:34 9.9 °C 8.7 °C 1027.7 hPa SSO 3.2 km/h 3.9 km/h 92% 0.5 mm
17:39 9.9 °C 8.7 °C 1027.7 hPa SSE 3.2 km/h 8.7 km/h 92.3% 0.5 mm
17:44 10 °C 8.9 °C 1027.7 hPa SE 3.2 km/h 11.1 km/h 93% 0.5 mm
17:49 9.9 °C 8.8 °C 1027.7 hPa SE 3.4 km/h 5.6 km/h 93% 0.5 mm
17:54 9.9 °C 8.8 °C 1027.7 hPa SE 4.7 km/h 5.6 km/h 93% 0.5 mm
17:59 9.8 °C 8.8 °C 1027.7 hPa SE 4.3 km/h 3.9 km/h 93% 0.2 mm
18:04 9.8 °C 8.7 °C 1027.7 hPa SE 2.9 km/h 3.9 km/h 93% 0.2 mm
18:09 9.8 °C 8.8 °C 1027.7 hPa SE 2.8 km/h 3.7 km/h 93.7% 0.2 mm
18:14 9.8 °C 8.9 °C 1027.7 hPa SE 2.3 km/h 3.7 km/h 94% 0.0 mm
18:19 9.8 °C 8.9 °C 1027.7 hPa SE 2.3 km/h 5.6 km/h 94% 0.0 mm
18:24 9.8 °C 8.9 °C 1027.7 hPa SE 2.3 km/h 5.6 km/h 94% 0.0 mm
18:29 9.9 °C 9 °C 1027.6 hPa SE 2.4 km/h 5.8 km/h 94% 0.0 mm
18:34 9.9 °C 9 °C 1027.6 hPa SE 3.2 km/h 7.4 km/h 94% 0.0 mm
18:39 9.9 °C 9 °C 1027.6 hPa SE 3.3 km/h 7.4 km/h 94% 0.0 mm
18:44 9.8 °C 8.9 °C 1027.6 hPa SE 3.9 km/h 7.4 km/h 94% 0.0 mm
18:49 9.9 °C 9 °C 1027.6 hPa SSE 3.9 km/h 7.4 km/h 94% 0.3 mm
18:54 9.9 °C 9 °C 1027.6 hPa SSE 3.9 km/h 7.6 km/h 94% 0.3 mm
18:59 9.8 °C 8.9 °C 1027.6 hPa SSE 4 km/h 8.4 km/h 94% 0.3 mm
19:04 9.8 °C 8.9 °C 1027.6 hPa SSE 4.7 km/h 7.6 km/h 94% 0.3 mm
19:09 9.8 °C 8.9 °C 1027.7 hPa SSE 4.7 km/h 7.6 km/h 94.1% 0.3 mm
19:14 9.8 °C 9.1 °C 1027.7 hPa SSE 4.7 km/h 5.6 km/h 95% 0.3 mm
19:19 9.8 °C 9.1 °C 1027.7 hPa SSE 3.9 km/h 2.3 km/h 95% 0.3 mm
19:24 9.8 °C 9.1 °C 1027.8 hPa Calm   5.8 km/h 95% 0.3 mm
19:29 9.8 °C 9.1 °C 1027.8 hPa SE 0.4 km/h 7.4 km/h 95% 0.5 mm
19:34 9.8 °C 9.1 °C 1027.8 hPa SE 3.9 km/h 7.4 km/h 95% 0.5 mm
19:39 9.8 °C 9.1 °C 1027.8 hPa SE 3.8 km/h 3.9 km/h 95% 0.5 mm
19:44 9.8 °C 9.1 °C 1027.8 hPa SE 3.2 km/h 8.4 km/h 95% 0.5 mm
19:49 9.8 °C 9.1 °C 1027.8 hPa SE 3.5 km/h 10 km/h 95% 0.2 mm
19:54 9.8 °C 9 °C 1027.8 hPa SSE 5 km/h 9.5 km/h 95% 0.2 mm
19:59 9.7 °C 8.9 °C 1027.8 hPa Sur 5 km/h 7.6 km/h 95% 0.2 mm
20:04 9.7 °C 8.9 °C 1027.8 hPa SSE 5 km/h 7.4 km/h 95% 0.2 mm
20:09 9.7 °C 8.9 °C 1027.8 hPa SSE 4.8 km/h 5.6 km/h 95% 0.2 mm
20:14 9.7 °C 8.9 °C 1027.8 hPa SSE 3.9 km/h 7.4 km/h 95% 0.2 mm
20:19 9.7 °C 9 °C 1027.8 hPa SSE 4 km/h 7.4 km/h 95.1% 0.5 mm
20:24 9.7 °C 9.1 °C 1027.9 hPa SE 4.7 km/h 7.4 km/h 96% 0.7 mm
20:29 9.7 °C 9.1 °C 1027.9 hPa SE 4.5 km/h 5.8 km/h 96% 0.8 mm
20:34 9.7 °C 9.1 °C 1027.9 hPa SE 3.9 km/h 7.4 km/h 96% 1.1 mm
20:39 9.8 °C 9.1 °C 1027.9 hPa SE 3.9 km/h 5.6 km/h 96% 1.1 mm
20:44 9.8 °C 9.2 °C 1027.9 hPa SE 3.9 km/h 5.8 km/h 96% 1.3 mm
20:49 9.8 °C 9.2 °C 1027.9 hPa Sur 3.7 km/h 5.8 km/h 96% 1.8 mm
20:54 9.7 °C 9.1 °C 1028.1 hPa Sur 2.9 km/h 3.2 km/h 96% 1.8 mm
20:59 9.8 °C 9.2 °C 1028.1 hPa SSE 2.9 km/h 7.4 km/h 96% 1.8 mm
21:04 9.8 °C 9.2 °C 1028.1 hPa SSE 2.9 km/h 7.4 km/h 96% 1.8 mm
21:09 9.8 °C 9.2 °C 1028.1 hPa ESE 3.1 km/h 8.7 km/h 96% 1.8 mm
21:14 9.8 °C 9.2 °C 1028.0 hPa NE 4.7 km/h 9.5 km/h 96% 2.1 mm
21:19 9.8 °C 9.2 °C 1028.0 hPa NE 4.8 km/h 9.3 km/h 96% 2.1 mm
21:24 9.8 °C 9.2 °C 1028.0 hPa NE 5.8 km/h 9.3 km/h 96% 1.8 mm
21:29 9.9 °C 9.2 °C 1028.0 hPa NE 5.9 km/h 20.1 km/h 96% 1.3 mm
21:34 9.9 °C 9.3 °C 1028.0 hPa ENE 6.4 km/h 20.4 km/h 96% 1.5 mm
21:39 9.9 °C 9.3 °C 1028.0 hPa Este 7 km/h 17.2 km/h 96% 1.7 mm
21:44 9.9 °C 9.3 °C 1027.9 hPa ENE 10.3 km/h 20.1 km/h 96% 1.8 mm
21:49 9.9 °C 9.3 °C 1027.9 hPa NE 10 km/h 20.4 km/h 96% 1.8 mm
21:54 9.9 °C 9.3 °C 1028.1 hPa NE 8.4 km/h 19 km/h 96% 2.3 mm
21:59 9.8 °C 9.2 °C 1028.1 hPa NE 8.9 km/h 22.2 km/h 96% 2.3 mm
22:04 9.8 °C 9.2 °C 1028.1 hPa NE 11.1 km/h 22.2 km/h 96% 2.3 mm
22:09 9.8 °C 9.2 °C 1028.1 hPa NE 10.9 km/h 13 km/h 96% 2.6 mm
22:14 9.8 °C 9.2 °C 1028.0 hPa NNE 10 km/h 14.8 km/h 96% 2.6 mm
22:19 9.8 °C 9.2 °C 1028.0 hPa NNE 9.7 km/h 13.7 km/h 96% 2.3 mm
22:24 9.8 °C 9.2 °C 1028.0 hPa NNE 8.4 km/h 13 km/h 96% 2.3 mm
22:29 9.7 °C 9.1 °C 1027.9 hPa NNE 8.4 km/h 11.1 km/h 96% 2.3 mm
22:34 9.7 °C 9.1 °C 1027.9 hPa NNE 8.4 km/h 11.1 km/h 96% 2.1 mm
22:39 9.7 °C 9.1 °C 1028.0 hPa NNE 8.2 km/h 11.9 km/h 96% 1.8 mm
22:44 9.7 °C 9.1 °C 1028.0 hPa NNE 6.9 km/h 11.1 km/h 96% 1.6 mm
22:49 9.7 °C 9.1 °C 1028.0 hPa NNE 6.9 km/h 13 km/h 96% 1.3 mm
22:54 9.6 °C 9 °C 1028.1 hPa NNE 6.9 km/h 13 km/h 96% 0.5 mm
22:59 9.6 °C 9 °C 1028.1 hPa NNE 6.7 km/h 9.3 km/h 96% 0.3 mm
23:04 9.6 °C 9 °C 1028.1 hPa North 5.8 km/h 7.6 km/h 96% 0.3 mm
23:09 9.5 °C 8.9 °C 1028.1 hPa NNE 5.5 km/h 7.4 km/h 96% 0.0 mm
23:14 9.5 °C 8.9 °C 1027.9 hPa NNE 3.9 km/h 5 km/h 96% 0.0 mm
23:19 9.5 °C 8.9 °C 1027.9 hPa NNE 3.7 km/h 5.6 km/h 96% 0.0 mm
23:24 9.5 °C 8.9 °C 1028.0 hPa NNE 2.9 km/h 5.8 km/h 96% 0.0 mm
23:29 9.5 °C 8.9 °C 1028.0 hPa NE 3.2 km/h 10 km/h 96% 0.0 mm
23:34 9.5 °C 8.9 °C 1028.0 hPa NE 4.7 km/h 11.1 km/h 96% 0.0 mm
23:39 9.5 °C 8.9 °C 1028.0 hPa NE 5 km/h 9.5 km/h 96% 0.0 mm
23:44 9.5 °C 8.9 °C 1028.0 hPa NE 6.4 km/h 9.3 km/h 96% 0.0 mm
23:49 9.4 °C 8.8 °C 1028.0 hPa NE 6.3 km/h 10 km/h 96% 0.0 mm
23:54 9.4 °C 8.8 °C 1028.0 hPa NE 5.8 km/h 11.9 km/h 96% 0.0 mm
23:59 9.4 °C 8.8 °C 1028.0 hPa NE 6 km/h 11.1 km/h 96% 0.0 mm
Murcia-Puente Tocinos, Espa?a
Compliments of Weather Underground - 3 mb

La estación de MeteoMurcia.com, publica sus datos en los siguientes proyectos:

Weather Underground PWS IMURCIAP2 Meteoclimatic www.awekas.at

W3Counter
Web Analytics